CheckWX is a tool to help pilots better visualize weather data.  It is not intended as a substitute for an official pre-flight weather briefing.

13:03:33 UTC

KOXI METAR
Starke County Airport
Knox, Indiana, USA
Current

9 mins ago

KOXI 191255Z AUTO 00000KT 7SM OVC019 01/00 A2978 RMK AO1
Observed
Nov-19 @ 12:55 UTC
Visibility
7 SM
Flight Rules
MVFR
Cloud Levels
  • Overcast at 1,900' AGL
Temperature
C / 34°F
Dewpoint
C / 32°F
Humidity
93%
Altimeter
29.78" Hg
Pressure
1008.42 hPa
Previous

29 mins ago

KOXI 191235Z AUTO 00000KT 7SM OVC019 01/00 A2977 RMK AO1
Observed
Nov-19 @ 12:35 UTC
Visibility
7 SM
Flight Rules
MVFR
Cloud Levels
  • Overcast at 1,900' AGL
Temperature
C / 34°F
Dewpoint
C / 32°F
Humidity
93%
Altimeter
29.77" Hg
Pressure
1008.12 hPa
Previous

49 mins ago

KOXI 191215Z AUTO 00000KT 7SM OVC019 01/00 A2977 RMK AO1
Observed
Nov-19 @ 12:15 UTC
Visibility
7 SM
Flight Rules
MVFR
Cloud Levels
  • Overcast at 1,900' AGL
Temperature
C / 34°F
Dewpoint
C / 32°F
Humidity
93%
Altimeter
29.77" Hg
Pressure
1008.12 hPa